createdAt,value
2022-10-27T00:00:49.788Z,12.44
2022-10-27T00:01:49.819Z,12.48
2022-10-27T00:02:49.855Z,12.53
2022-10-27T00:03:50.492Z,12.53
2022-10-27T00:04:49.719Z,12.54
2022-10-27T00:05:49.716Z,12.54
2022-10-27T00:06:49.692Z,12.54
2022-10-27T00:07:49.835Z,12.54
2022-10-27T00:08:49.700Z,12.55
2022-10-27T00:09:49.678Z,12.59
2022-10-27T00:10:49.669Z,12.61
2022-10-27T00:11:49.662Z,12.65
2022-10-27T00:12:50.042Z,12.66
2022-10-27T00:13:49.652Z,12.71
2022-10-27T00:14:49.623Z,12.73
2022-10-27T00:15:49.614Z,12.79
2022-10-27T00:16:50.536Z,12.79
2022-10-27T00:17:49.598Z,12.80
2022-10-27T00:18:49.596Z,12.84
2022-10-27T00:19:49.566Z,12.88
2022-10-27T00:20:49.547Z,12.88
2022-10-27T00:21:49.610Z,12.93
2022-10-27T00:22:49.849Z,12.90
2022-10-27T00:23:49.563Z,12.91
2022-10-27T00:24:49.521Z,12.88
2022-10-27T00:25:49.539Z,12.91
2022-10-27T00:26:49.489Z,12.95
2022-10-27T00:27:49.493Z,12.99
2022-10-27T00:28:49.479Z,12.96
2022-10-27T00:29:49.488Z,12.96
2022-10-27T00:30:49.444Z,12.99
2022-10-27T00:31:49.443Z,13.02
2022-10-27T00:32:49.871Z,13.08
2022-10-27T00:33:49.419Z,13.11
2022-10-27T00:34:49.613Z,13.20
2022-10-27T00:35:49.409Z,13.23
2022-10-27T00:36:49.382Z,13.21
2022-10-27T00:37:49.707Z,13.26
2022-10-27T00:38:49.423Z,13.27
2022-10-27T00:39:49.390Z,13.26
2022-10-27T00:40:49.365Z,13.35
2022-10-27T00:41:49.344Z,13.38
2022-10-27T00:42:49.440Z,13.32
2022-10-27T00:43:49.321Z,13.30
2022-10-27T00:44:49.330Z,13.26
2022-10-27T00:45:49.307Z,13.20
2022-10-27T00:46:49.301Z,13.13
2022-10-27T00:47:49.570Z,13.06
2022-10-27T00:48:49.270Z,13.04
2022-10-27T00:49:49.265Z,13.01
2022-10-27T00:50:49.414Z,12.98
2022-10-27T00:51:49.250Z,12.93
2022-10-27T00:52:49.245Z,12.91
2022-10-27T00:53:49.221Z,12.93
2022-10-27T00:54:49.473Z,12.93
2022-10-27T00:55:49.181Z,12.91
2022-10-27T00:56:51.935Z,12.90
2022-10-27T00:57:49.497Z,12.88
2022-10-27T00:58:50.461Z,12.90
2022-10-27T00:59:49.154Z,12.90
2022-10-27T01:00:49.188Z,12.87
2022-10-27T01:01:49.193Z,12.87
2022-10-27T01:02:49.248Z,12.80
2022-10-27T01:03:49.114Z,12.79
2022-10-27T01:04:49.097Z,12.71
2022-10-27T01:05:49.107Z,12.69
2022-10-27T01:06:49.072Z,12.66
2022-10-27T01:07:49.053Z,12.61
2022-10-27T01:08:49.056Z,12.63
2022-10-27T01:09:49.042Z,12.61
2022-10-27T01:10:49.079Z,12.58
2022-10-27T01:11:49.039Z,12.51
2022-10-27T01:12:49.323Z,12.47
2022-10-27T01:13:49.003Z,12.41
2022-10-27T01:14:49.998Z,12.40
2022-10-27T01:15:48.978Z,12.36
2022-10-27T01:16:48.992Z,12.33
2022-10-27T01:17:48.950Z,12.29
2022-10-27T01:18:48.956Z,12.25
2022-10-27T01:19:49.376Z,12.18
2022-10-27T01:20:49.058Z,12.14
2022-10-27T01:21:48.925Z,12.13
2022-10-27T01:22:49.234Z,12.08
2022-10-27T01:23:48.890Z,12.05
2022-10-27T01:24:48.900Z,12.03
2022-10-27T01:25:49.572Z,11.97
2022-10-27T01:26:48.893Z,11.96
2022-10-27T01:27:48.859Z,11.96
2022-10-27T01:28:49.342Z,11.93
2022-10-27T01:29:48.843Z,11.89
2022-10-27T01:30:48.883Z,11.88
2022-10-27T01:31:48.855Z,11.87
2022-10-27T01:32:49.294Z,11.82
2022-10-27T01:33:48.795Z,11.80
2022-10-27T01:34:48.837Z,11.79
2022-10-27T01:35:48.776Z,11.79
2022-10-27T01:36:48.760Z,11.80
2022-10-27T01:37:48.785Z,11.79
2022-10-27T01:38:48.750Z,11.76
2022-10-27T01:39:48.747Z,11.74
2022-10-27T01:40:48.725Z,11.73
2022-10-27T01:41:48.708Z,11.71
2022-10-27T01:42:48.986Z,11.71
2022-10-27T01:43:48.723Z,11.69
2022-10-27T01:44:48.770Z,11.67
2022-10-27T01:45:48.668Z,11.66
2022-10-27T01:46:48.672Z,11.64
2022-10-27T01:47:48.669Z,11.61
2022-10-27T01:48:48.648Z,11.59
2022-10-27T01:49:48.649Z,11.59
2022-10-27T01:51:03.976Z,11.58
2022-10-27T01:51:48.639Z,11.61
2022-10-27T01:52:48.725Z,11.56
2022-10-27T01:53:48.604Z,11.56
2022-10-27T01:54:48.604Z,11.58
2022-10-27T01:55:48.564Z,11.58
2022-10-27T01:56:48.558Z,11.55
2022-10-27T01:57:48.575Z,11.56
2022-10-27T01:58:48.549Z,11.54
2022-10-27T01:59:48.534Z,11.52
2022-10-27T02:00:48.573Z,11.49
2022-10-27T02:01:48.525Z,11.49
2022-10-27T02:02:48.601Z,11.46
2022-10-27T02:03:48.476Z,11.45
2022-10-27T02:04:48.485Z,11.45
2022-10-27T02:05:48.464Z,11.41
2022-10-27T02:06:48.477Z,11.43
2022-10-27T02:07:48.449Z,11.40
2022-10-27T02:08:48.437Z,11.40
2022-10-27T02:09:48.414Z,11.40
2022-10-27T02:10:48.423Z,11.40
2022-10-27T02:11:48.394Z,11.41
2022-10-27T02:12:48.578Z,11.40
2022-10-27T02:13:48.373Z,11.37
2022-10-27T02:14:48.370Z,11.37
2022-10-27T02:15:48.378Z,11.36
2022-10-27T02:16:48.354Z,11.34
2022-10-27T02:17:48.332Z,11.33
2022-10-27T02:18:48.334Z,11.33
2022-10-27T02:19:48.319Z,11.31
2022-10-27T02:20:48.333Z,11.28
2022-10-27T02:21:48.308Z,11.28
2022-10-27T02:22:50.728Z,11.28
2022-10-27T02:23:48.280Z,11.28
2022-10-27T02:24:48.279Z,11.30
2022-10-27T02:25:48.248Z,11.30
2022-10-27T02:26:48.863Z,11.27
2022-10-27T02:27:48.281Z,11.23
2022-10-27T02:28:48.217Z,11.22
2022-10-27T02:29:48.215Z,11.18
2022-10-27T02:30:48.242Z,11.18
2022-10-27T02:31:50.944Z,11.16
2022-10-27T02:32:48.352Z,11.16
2022-10-27T02:33:48.157Z,11.12
2022-10-27T02:34:48.163Z,11.12
2022-10-27T02:35:48.811Z,11.12
2022-10-27T02:36:48.178Z,11.09
2022-10-27T02:37:48.119Z,11.08
2022-10-27T02:38:48.145Z,11.09
2022-10-27T02:39:48.099Z,11.08
2022-10-27T02:40:48.111Z,11.05
2022-10-27T02:41:48.081Z,11.08
2022-10-27T02:42:48.296Z,11.05
2022-10-27T02:43:48.059Z,11.05
2022-10-27T02:44:48.057Z,11.05
2022-10-27T02:45:48.059Z,11.04
2022-10-27T02:46:51.505Z,11.03
2022-10-27T02:47:48.010Z,11.01
2022-10-27T02:48:48.016Z,11.01
2022-10-27T02:49:47.986Z,11.01
2022-10-27T02:50:48.016Z,11.01
2022-10-27T02:51:47.984Z,11.01
2022-10-27T02:52:48.300Z,11.01
2022-10-27T02:53:47.960Z,11.01
2022-10-27T02:54:47.952Z,11.03
2022-10-27T02:55:47.959Z,11.04
2022-10-27T02:56:47.928Z,11.04
2022-10-27T02:57:47.914Z,11.05
2022-10-27T02:58:47.910Z,11.04
2022-10-27T02:59:51.037Z,11.04
2022-10-27T03:00:47.940Z,11.04
2022-10-27T03:01:47.944Z,11.03
2022-10-27T03:02:48.012Z,11.03
2022-10-27T03:03:47.854Z,11.04
2022-10-27T03:04:47.845Z,11.00
2022-10-27T03:05:49.081Z,11.03
2022-10-27T03:06:47.876Z,11.03
2022-10-27T03:07:47.880Z,11.01
2022-10-27T03:08:47.987Z,11.04
2022-10-27T03:09:47.783Z,11.04
2022-10-27T03:10:47.806Z,11.11
2022-10-27T03:11:47.777Z,11.12
2022-10-27T03:12:47.979Z,11.11
2022-10-27T03:13:47.752Z,11.12
2022-10-27T03:14:47.753Z,11.12
2022-10-27T03:15:47.723Z,11.12
2022-10-27T03:16:47.729Z,11.11
2022-10-27T03:17:47.696Z,11.11
2022-10-27T03:18:47.729Z,11.11
2022-10-27T03:19:47.704Z,11.12
2022-10-27T03:20:47.667Z,11.13
2022-10-27T03:21:47.663Z,11.13
2022-10-27T03:22:47.660Z,11.16
2022-10-27T03:23:47.635Z,11.22
2022-10-27T03:24:47.645Z,11.27
2022-10-27T03:25:48.497Z,11.34
2022-10-27T03:26:47.617Z,11.41
2022-10-27T03:27:47.614Z,11.48
2022-10-27T03:28:47.576Z,11.52
2022-10-27T03:29:47.593Z,11.56
2022-10-27T03:30:47.564Z,11.58
2022-10-27T03:31:47.559Z,11.59
2022-10-27T03:32:47.553Z,11.59
2022-10-27T03:33:47.546Z,11.61
2022-10-27T03:34:47.538Z,11.61
2022-10-27T03:35:47.518Z,11.59
2022-10-27T03:36:47.492Z,11.58
2022-10-27T03:37:47.503Z,11.54
2022-10-27T03:38:47.476Z,11.52
2022-10-27T03:39:47.594Z,11.51
2022-10-27T03:40:47.486Z,11.49
2022-10-27T03:41:47.474Z,11.49
2022-10-27T03:42:47.655Z,11.52
2022-10-27T03:43:47.434Z,11.54
2022-10-27T03:44:47.508Z,11.58
2022-10-27T03:45:47.398Z,11.66
2022-10-27T03:46:47.397Z,11.70
2022-10-27T03:47:47.386Z,11.73
2022-10-27T03:48:47.378Z,11.74
2022-10-27T03:49:47.353Z,11.74
2022-10-27T03:50:47.378Z,11.76
2022-10-27T03:51:47.338Z,11.77
2022-10-27T03:52:47.338Z,11.80
2022-10-27T03:53:47.334Z,11.79
2022-10-27T03:54:47.347Z,11.80
2022-10-27T03:55:47.309Z,11.80
2022-10-27T03:56:47.319Z,11.80
2022-10-27T03:57:47.269Z,11.79
2022-10-27T03:58:47.286Z,11.82
2022-10-27T03:59:47.974Z,11.80
2022-10-27T04:00:47.347Z,11.80
2022-10-27T04:01:47.444Z,11.82
2022-10-27T04:02:47.229Z,11.80
2022-10-27T04:03:47.221Z,11.84
2022-10-27T04:04:47.227Z,11.84
2022-10-27T04:05:47.221Z,11.84
2022-10-27T04:06:47.231Z,11.84
2022-10-27T04:07:47.532Z,11.85
2022-10-27T04:08:47.170Z,11.84
2022-10-27T04:09:47.227Z,11.82
2022-10-27T04:10:47.149Z,11.82
2022-10-27T04:11:47.150Z,11.84
2022-10-27T04:12:47.127Z,11.84
2022-10-27T04:13:47.114Z,11.85
2022-10-27T04:14:47.119Z,11.85
2022-10-27T04:15:47.093Z,11.85
2022-10-27T04:16:47.086Z,11.87
2022-10-27T04:17:47.108Z,11.84
2022-10-27T04:18:47.133Z,11.88
2022-10-27T04:19:47.043Z,11.89
2022-10-27T04:20:47.029Z,11.89
2022-10-27T04:21:47.032Z,11.89
2022-10-27T04:22:47.055Z,11.91
2022-10-27T04:23:47.005Z,11.89
2022-10-27T04:24:47.008Z,11.91
2022-10-27T04:25:46.982Z,11.93
2022-10-27T04:26:46.989Z,11.95
2022-10-27T04:27:46.996Z,11.93
2022-10-27T04:28:46.962Z,11.95
2022-10-27T04:29:46.949Z,11.96
2022-10-27T04:30:47.063Z,11.95
2022-10-27T04:31:46.922Z,11.95
2022-10-27T04:32:46.940Z,11.95
2022-10-27T04:33:46.891Z,11.95
2022-10-27T04:34:46.892Z,11.96
2022-10-27T04:35:46.882Z,11.99
2022-10-27T04:36:46.872Z,11.99
2022-10-27T04:37:46.877Z,11.99
2022-10-27T04:38:46.868Z,12.03
2022-10-27T04:39:46.830Z,12.03
2022-10-27T04:40:46.836Z,12.03
2022-10-27T04:41:46.806Z,12.00
2022-10-27T04:42:46.811Z,12.00
2022-10-27T04:43:46.853Z,12.05
2022-10-27T04:44:46.785Z,12.05
2022-10-27T04:45:46.785Z,12.08
2022-10-27T04:46:46.766Z,12.08
2022-10-27T04:47:46.750Z,12.08
2022-10-27T04:48:46.768Z,12.08
2022-10-27T04:49:46.715Z,12.08
2022-10-27T04:50:46.723Z,12.08
2022-10-27T04:51:46.713Z,12.08
2022-10-27T04:52:46.704Z,12.08
2022-10-27T04:53:46.712Z,12.08
2022-10-27T04:54:46.684Z,12.07
2022-10-27T04:55:46.655Z,12.07
2022-10-27T04:56:46.661Z,12.04
2022-10-27T04:57:46.643Z,12.03
2022-10-27T04:58:46.661Z,12.00
2022-10-27T04:59:46.664Z,11.99
2022-10-27T05:00:46.619Z,11.97
2022-10-27T05:01:46.771Z,11.99
2022-10-27T05:02:46.656Z,11.99
2022-10-27T05:03:46.575Z,11.95
2022-10-27T05:04:46.590Z,11.96
2022-10-27T05:05:46.547Z,11.95
2022-10-27T05:06:46.560Z,11.91
2022-10-27T05:07:46.546Z,11.96
2022-10-27T05:08:46.600Z,11.96
2022-10-27T05:09:46.539Z,11.96
2022-10-27T05:10:46.531Z,11.97
2022-10-27T05:11:46.494Z,12.00
2022-10-27T05:12:46.488Z,11.99
2022-10-27T05:13:46.473Z,11.96
2022-10-27T05:14:46.497Z,11.95
2022-10-27T05:15:46.476Z,11.95
2022-10-27T05:16:46.471Z,11.95
2022-10-27T05:17:46.430Z,11.95
2022-10-27T05:18:46.435Z,11.93
2022-10-27T05:19:46.403Z,11.95
2022-10-27T05:20:46.416Z,11.95
2022-10-27T05:21:46.433Z,11.93
2022-10-27T05:22:46.386Z,11.91
2022-10-27T05:23:47.822Z,11.89
2022-10-27T05:24:46.350Z,11.91
2022-10-27T05:25:46.350Z,11.97
2022-10-27T05:26:46.350Z,12.00
2022-10-27T05:27:46.338Z,12.05
2022-10-27T05:28:46.305Z,12.05
2022-10-27T05:29:46.320Z,12.08
2022-10-27T05:30:46.284Z,12.07
2022-10-27T05:31:46.300Z,12.11
2022-10-27T05:32:47.634Z,12.11
2022-10-27T05:33:46.266Z,12.13
2022-10-27T05:34:46.251Z,12.15
2022-10-27T05:35:46.258Z,12.15
2022-10-27T05:36:46.249Z,12.15
2022-10-27T05:37:46.230Z,12.17
2022-10-27T05:38:46.201Z,12.15
2022-10-27T05:39:46.201Z,12.14
2022-10-27T05:40:46.183Z,12.14
2022-10-27T05:41:46.186Z,12.15
2022-10-27T05:42:46.203Z,12.15
2022-10-27T05:43:46.188Z,12.17
2022-10-27T05:44:46.148Z,12.15
2022-10-27T05:45:46.152Z,12.17
2022-10-27T05:46:46.118Z,12.18
2022-10-27T05:47:46.122Z,12.22
2022-10-27T05:48:46.094Z,12.21
2022-10-27T05:49:46.089Z,12.17
2022-10-27T05:50:46.045Z,12.17
2022-10-27T05:51:46.043Z,12.14
2022-10-27T05:52:46.001Z,12.14
2022-10-27T05:53:46.015Z,12.14
2022-10-27T05:54:46.010Z,12.13
2022-10-27T05:55:45.989Z,12.11
2022-10-27T05:56:45.963Z,12.10
2022-10-27T05:57:45.986Z,12.08
2022-10-27T05:58:45.959Z,12.10
2022-10-27T05:59:45.959Z,12.07
2022-10-27T06:00:45.940Z,12.08
2022-10-27T06:01:46.058Z,12.10
2022-10-27T06:02:45.896Z,12.10
2022-10-27T06:03:45.892Z,12.08
2022-10-27T06:04:45.899Z,12.10
2022-10-27T06:05:45.887Z,12.08
2022-10-27T06:06:45.860Z,12.13
2022-10-27T06:07:45.865Z,12.13
2022-10-27T06:08:45.830Z,12.15
2022-10-27T06:09:45.832Z,12.17
2022-10-27T06:10:45.833Z,12.18
2022-10-27T06:11:45.808Z,12.21
2022-10-27T06:12:45.790Z,12.21
2022-10-27T06:13:45.782Z,12.18
2022-10-27T06:14:45.774Z,12.15
2022-10-27T06:15:45.856Z,12.14
2022-10-27T06:16:45.756Z,12.11
2022-10-27T06:17:45.742Z,12.08
2022-10-27T06:18:45.727Z,12.07
2022-10-27T06:19:45.731Z,12.03
2022-10-27T06:20:45.713Z,12.00
2022-10-27T06:21:45.698Z,12.03
2022-10-27T06:22:45.708Z,12.00
2022-10-27T06:23:45.688Z,12.04
2022-10-27T06:24:45.751Z,12.08
2022-10-27T06:25:45.669Z,12.08
2022-10-27T06:26:45.891Z,12.10
2022-10-27T06:27:45.650Z,12.08
2022-10-27T06:28:45.627Z,12.07
2022-10-27T06:29:45.620Z,12.07
2022-10-27T06:30:45.603Z,12.07
2022-10-27T06:31:45.610Z,12.07
2022-10-27T06:32:45.583Z,12.05
2022-10-27T06:33:45.584Z,12.07
2022-10-27T06:34:45.562Z,12.07
2022-10-27T06:35:45.590Z,12.08
2022-10-27T06:36:45.537Z,12.08
2022-10-27T06:37:45.563Z,12.07
2022-10-27T06:38:45.601Z,12.07
2022-10-27T06:39:45.547Z,12.04
2022-10-27T06:40:45.502Z,12.03
2022-10-27T06:41:45.491Z,11.97
2022-10-27T06:43:02.057Z,12.03
2022-10-27T06:43:45.486Z,12.07
2022-10-27T06:44:45.634Z,12.10
2022-10-27T06:45:45.467Z,12.13
2022-10-27T06:46:45.450Z,12.15
2022-10-27T06:47:45.454Z,12.18
2022-10-27T06:48:45.437Z,12.21
2022-10-27T06:49:45.446Z,12.21
2022-10-27T06:50:45.415Z,12.18
2022-10-27T06:51:45.404Z,12.21
2022-10-27T06:52:45.370Z,12.18
2022-10-27T06:53:45.386Z,12.22
2022-10-27T06:54:45.368Z,12.25
2022-10-27T06:55:45.363Z,12.28
2022-10-27T06:56:45.335Z,12.33
2022-10-27T06:57:45.451Z,12.40
2022-10-27T06:58:45.324Z,12.46
2022-10-27T06:59:45.325Z,12.50
2022-10-27T07:00:45.323Z,12.53
2022-10-27T07:01:45.341Z,12.54
2022-10-27T07:02:45.266Z,12.58
2022-10-27T07:03:45.301Z,12.61
2022-10-27T07:04:45.247Z,12.68
2022-10-27T07:05:45.253Z,12.72
2022-10-27T07:06:45.252Z,12.79
2022-10-27T07:07:45.222Z,12.86
2022-10-27T07:08:45.276Z,12.87
2022-10-27T07:09:45.204Z,12.91
2022-10-27T07:10:45.208Z,12.95
2022-10-27T07:11:45.199Z,12.99
2022-10-27T07:12:45.196Z,13.04
2022-10-27T07:13:45.158Z,13.06
2022-10-27T07:14:45.200Z,13.09
2022-10-27T07:15:45.184Z,13.16
2022-10-27T07:16:45.175Z,13.20
2022-10-27T07:17:45.213Z,13.24
2022-10-27T07:18:45.101Z,13.27
2022-10-27T07:19:45.094Z,13.30
2022-10-27T07:20:45.086Z,13.38
2022-10-27T07:21:45.096Z,13.40
2022-10-27T07:22:45.059Z,13.46
2022-10-27T07:23:45.064Z,13.49
2022-10-27T07:24:45.051Z,13.53
2022-10-27T07:26:45.079Z,13.60
2022-10-27T07:27:45.018Z,13.63
2022-10-27T07:28:45.000Z,13.67
2022-10-27T07:29:44.996Z,13.71
2022-10-27T07:30:44.986Z,13.75
2022-10-27T07:31:44.978Z,13.76
2022-10-27T07:32:44.987Z,13.80
2022-10-27T07:33:44.952Z,13.86
2022-10-27T07:34:44.955Z,13.85
2022-10-27T07:35:44.938Z,13.94
2022-10-27T07:36:44.919Z,13.96
2022-10-27T07:37:44.947Z,13.98
2022-10-27T07:38:44.913Z,14.04
2022-10-27T07:39:44.917Z,14.11
2022-10-27T07:40:44.879Z,14.12
2022-10-27T07:41:44.885Z,14.15
2022-10-27T07:42:44.901Z,14.21
2022-10-27T07:43:44.856Z,14.22
2022-10-27T07:44:44.843Z,14.27
2022-10-27T07:45:44.843Z,14.30
2022-10-27T07:46:44.815Z,14.33
2022-10-27T07:47:44.899Z,14.37
2022-10-27T07:48:44.969Z,14.44
2022-10-27T07:49:44.806Z,14.45
2022-10-27T07:50:45.004Z,14.44
2022-10-27T07:51:44.788Z,14.46
2022-10-27T07:52:44.770Z,14.51
2022-10-27T07:53:44.784Z,14.55
2022-10-27T07:54:45.073Z,14.61
2022-10-27T07:55:44.732Z,14.64
2022-10-27T07:56:44.729Z,14.69
2022-10-27T07:57:44.711Z,14.74
2022-10-27T07:58:44.696Z,14.78
2022-10-27T07:59:44.720Z,14.85
2022-10-27T08:00:44.695Z,14.87
2022-10-27T08:01:44.764Z,14.90
2022-10-27T08:02:44.642Z,14.93
2022-10-27T08:03:47.437Z,14.95
2022-10-27T08:04:44.629Z,14.99
2022-10-27T08:05:44.644Z,15.07
2022-10-27T08:06:44.625Z,15.08
2022-10-27T08:07:44.605Z,15.12
2022-10-27T08:08:44.631Z,15.15
2022-10-27T08:09:44.634Z,15.22
2022-10-27T08:10:45.052Z,15.25
2022-10-27T08:11:44.590Z,15.30
2022-10-27T08:12:44.584Z,15.36
2022-10-27T08:13:44.525Z,15.41
2022-10-27T08:14:44.525Z,15.45
2022-10-27T08:15:44.670Z,15.48
2022-10-27T08:16:44.543Z,15.50
2022-10-27T08:17:44.496Z,15.54
2022-10-27T08:18:44.470Z,15.62
2022-10-27T08:19:44.542Z,15.63
2022-10-27T08:20:44.473Z,15.62
2022-10-27T08:21:44.489Z,15.60
2022-10-27T08:22:44.477Z,15.68
2022-10-27T08:23:44.463Z,15.69
2022-10-27T08:24:44.423Z,15.72
2022-10-27T08:25:44.408Z,15.73
2022-10-27T08:26:44.439Z,15.77
2022-10-27T08:27:44.392Z,15.81
2022-10-27T08:28:44.366Z,15.83
2022-10-27T08:29:44.400Z,15.87
2022-10-27T08:30:51.945Z,15.87
2022-10-27T08:31:44.361Z,15.91
2022-10-27T08:32:44.320Z,15.90
2022-10-27T08:33:44.333Z,15.91
2022-10-27T08:34:45.789Z,15.99
2022-10-27T08:35:44.551Z,16.02
2022-10-27T08:36:44.282Z,16.03
2022-10-27T08:37:44.308Z,16.08
2022-10-27T08:38:44.266Z,16.09
2022-10-27T08:39:44.270Z,16.10
2022-10-27T08:40:44.296Z,16.18
2022-10-27T08:41:44.253Z,16.24
2022-10-27T08:42:44.237Z,16.26
2022-10-27T08:43:44.226Z,16.28
2022-10-27T08:44:44.200Z,16.33
2022-10-27T08:45:44.208Z,16.36
2022-10-27T08:46:44.186Z,16.40
2022-10-27T08:47:44.204Z,16.47
2022-10-27T08:48:44.168Z,16.57
2022-10-27T08:49:46.214Z,16.65
2022-10-27T08:50:44.145Z,16.76
2022-10-27T08:51:44.140Z,16.82
2022-10-27T08:52:44.148Z,16.83
2022-10-27T08:53:44.121Z,16.83
2022-10-27T08:54:44.102Z,16.88
2022-10-27T08:55:44.094Z,16.83
2022-10-27T08:56:44.079Z,16.87
2022-10-27T08:57:44.111Z,16.90
2022-10-27T08:59:45.109Z,17.01
2022-10-27T09:00:44.030Z,17.04
2022-10-27T09:01:44.173Z,17.06
2022-10-27T09:02:44.108Z,17.02
2022-10-27T09:03:44.037Z,17.09
2022-10-27T09:04:44.000Z,17.12
2022-10-27T09:05:44.042Z,17.14
2022-10-27T09:06:43.988Z,17.12
2022-10-27T09:07:44.001Z,17.14
2022-10-27T09:08:43.946Z,17.14
2022-10-27T09:09:44.003Z,17.14
2022-10-27T09:10:43.934Z,17.16
2022-10-27T09:11:43.957Z,17.27
2022-10-27T09:12:43.901Z,17.31
2022-10-27T09:13:43.903Z,17.32
2022-10-27T09:14:44.347Z,17.43
2022-10-27T09:15:43.931Z,17.52
2022-10-27T09:16:43.889Z,17.47
2022-10-27T09:17:43.854Z,17.50
2022-10-27T09:18:43.843Z,17.53
2022-10-27T09:19:43.863Z,17.53
2022-10-27T09:20:43.824Z,17.54
2022-10-27T09:21:43.846Z,17.54
2022-10-27T09:22:43.808Z,17.54
2022-10-27T09:23:43.800Z,17.54
2022-10-27T09:24:43.778Z,17.53
2022-10-27T09:25:43.857Z,17.57
2022-10-27T09:26:43.762Z,17.66
2022-10-27T09:27:43.762Z,17.66
2022-10-27T09:28:43.723Z,17.68
2022-10-27T09:29:43.724Z,17.76
2022-10-27T09:30:43.756Z,17.86
2022-10-27T09:31:43.742Z,17.91
2022-10-27T09:32:43.688Z,17.96
2022-10-27T09:33:43.698Z,18.05
2022-10-27T09:34:43.674Z,18.13
2022-10-27T09:35:43.686Z,18.23
2022-10-27T09:36:43.675Z,18.30
2022-10-27T09:37:43.649Z,18.34
2022-10-27T09:38:43.652Z,18.48
2022-10-27T09:39:43.625Z,18.63
2022-10-27T09:40:43.626Z,18.68
2022-10-27T09:41:43.623Z,18.63
2022-10-27T09:42:43.614Z,18.74
2022-10-27T09:43:43.590Z,18.86
2022-10-27T09:44:43.590Z,18.88
2022-10-27T09:45:43.580Z,18.93
2022-10-27T09:46:43.559Z,18.88
2022-10-27T09:47:43.558Z,18.88
2022-10-27T09:48:43.542Z,18.93
2022-10-27T09:49:43.525Z,18.96
2022-10-27T09:50:43.526Z,19.01
2022-10-27T09:51:43.662Z,19.09
2022-10-27T09:52:43.536Z,19.09
2022-10-27T09:53:43.482Z,19.27
2022-10-27T09:54:43.476Z,19.34
2022-10-27T09:55:43.451Z,19.49
2022-10-27T09:56:43.456Z,19.62
2022-10-27T09:57:43.452Z,19.72
2022-10-27T09:58:43.429Z,19.89
2022-10-27T09:59:43.417Z,19.89
2022-10-27T10:00:43.404Z,19.97
2022-10-27T10:01:43.540Z,19.94
2022-10-27T10:02:47.226Z,19.96
2022-10-27T10:03:43.400Z,19.79
2022-10-27T10:04:43.389Z,19.68
2022-10-27T10:05:43.341Z,19.59
2022-10-27T10:06:43.356Z,19.50
2022-10-27T10:07:43.346Z,19.63
2022-10-27T10:08:43.381Z,19.96
2022-10-27T10:09:43.353Z,20.12
2022-10-27T10:10:43.313Z,20.17
2022-10-27T10:11:43.308Z,20.25
2022-10-27T10:12:43.309Z,20.23
2022-10-27T10:13:43.260Z,20.23
2022-10-27T10:14:43.273Z,20.15
2022-10-27T10:15:43.251Z,20.26
2022-10-27T10:16:43.253Z,20.29
2022-10-27T10:17:43.248Z,20.37
2022-10-27T10:18:43.244Z,20.63
2022-10-27T10:19:43.245Z,20.97
2022-10-27T10:20:43.386Z,20.86
2022-10-27T10:21:43.196Z,20.63
2022-10-27T10:22:43.945Z,20.60
2022-10-27T10:23:43.162Z,20.68
2022-10-27T10:24:43.164Z,20.63
2022-10-27T10:25:43.153Z,20.86
2022-10-27T10:26:43.135Z,20.92
2022-10-27T10:27:43.115Z,20.90
2022-10-27T10:28:43.147Z,21.07
2022-10-27T10:29:43.096Z,21.19
2022-10-27T10:31:42.997Z,21.55
2022-10-27T10:32:43.361Z,21.78
2022-10-27T10:33:46.004Z,22.01
2022-10-27T10:34:43.342Z,21.96
2022-10-27T10:35:43.342Z,22.00
2022-10-27T10:36:43.318Z,21.73
2022-10-27T10:37:43.322Z,21.77
2022-10-27T10:38:43.305Z,21.88
2022-10-27T10:39:43.306Z,21.91
2022-10-27T10:40:43.274Z,22.01
2022-10-27T10:41:43.296Z,22.11
2022-10-27T10:42:43.265Z,22.11
2022-10-27T10:43:43.289Z,22.18
2022-10-27T10:44:44.899Z,22.28
2022-10-27T10:45:43.607Z,22.33
2022-10-27T10:46:43.226Z,22.46
2022-10-27T10:47:43.220Z,22.58
2022-10-27T10:48:43.225Z,22.58
2022-10-27T10:49:43.223Z,22.64
2022-10-27T10:50:43.178Z,22.89
2022-10-27T10:51:43.182Z,22.88
2022-10-27T10:52:43.163Z,22.68
2022-10-27T10:53:43.152Z,22.71
2022-10-27T10:54:43.168Z,22.91
2022-10-27T10:55:43.143Z,23.44
2022-10-27T10:56:43.110Z,23.86
2022-10-27T10:57:43.115Z,23.88
2022-10-27T10:58:43.093Z,23.69
2022-10-27T10:59:43.114Z,23.48
2022-10-27T11:00:43.136Z,23.34
2022-10-27T11:01:43.204Z,23.54
2022-10-27T11:02:43.064Z,23.59
2022-10-27T11:03:43.055Z,23.48
2022-10-27T11:04:43.041Z,23.45
2022-10-27T11:05:43.032Z,23.55
2022-10-27T11:06:43.013Z,23.28
2022-10-27T11:07:43.079Z,22.93
2022-10-27T11:08:43.051Z,22.33
2022-10-27T11:09:42.989Z,21.97
2022-10-27T11:10:43.024Z,22.12
2022-10-27T11:11:42.979Z,22.01
2022-10-27T11:12:42.954Z,22.04
2022-10-27T11:13:42.951Z,22.11
2022-10-27T11:14:42.936Z,22.21
2022-10-27T11:15:42.931Z,22.25
2022-10-27T11:16:43.016Z,22.31
2022-10-27T11:17:42.916Z,22.28
2022-10-27T11:18:42.913Z,22.23
2022-10-27T11:19:42.897Z,22.03
2022-10-27T11:20:42.895Z,22.07
2022-10-27T11:21:42.921Z,22.07
2022-10-27T11:22:42.980Z,21.97
2022-10-27T11:23:42.862Z,22.03
2022-10-27T11:24:42.832Z,22.16
2022-10-27T11:25:42.830Z,22.22
2022-10-27T11:26:42.827Z,22.27
2022-10-27T11:27:42.817Z,22.34
2022-10-27T11:28:42.799Z,22.33
2022-10-27T11:29:42.795Z,22.36
2022-10-27T11:30:42.775Z,22.31
2022-10-27T11:31:42.782Z,22.33
2022-10-27T11:32:42.768Z,22.33
2022-10-27T11:33:42.741Z,22.27
2022-10-27T11:34:42.742Z,22.33
2022-10-27T11:35:42.739Z,22.34
2022-10-27T11:36:42.718Z,22.49
2022-10-27T11:37:42.735Z,22.62
2022-10-27T11:38:42.687Z,22.73
2022-10-27T11:39:42.697Z,22.83
2022-10-27T11:40:42.671Z,22.88
2022-10-27T11:41:42.655Z,22.92
2022-10-27T11:42:42.689Z,22.92
2022-10-27T11:43:44.839Z,22.88
2022-10-27T11:44:42.654Z,22.95
2022-10-27T11:45:43.613Z,22.98
2022-10-27T11:46:42.672Z,23.11
2022-10-27T11:47:42.607Z,23.21
2022-10-27T11:48:42.597Z,23.21
2022-10-27T11:49:42.583Z,23.28
2022-10-27T11:50:42.582Z,23.08
2022-10-27T11:51:42.559Z,23.22
2022-10-27T11:52:42.542Z,23.51
2022-10-27T11:53:42.558Z,23.44
2022-10-27T11:54:42.530Z,23.46
2022-10-27T11:55:42.526Z,23.59
2022-10-27T11:56:42.497Z,23.70
2022-10-27T11:57:42.498Z,23.76
2022-10-27T11:58:42.474Z,23.54
2022-10-27T11:59:42.486Z,23.28
2022-10-27T12:00:42.454Z,23.25
2022-10-27T12:01:42.470Z,23.18
2022-10-27T12:02:42.503Z,23.07
2022-10-27T12:03:45.281Z,23.04
2022-10-27T12:04:42.425Z,23.14
2022-10-27T12:05:42.410Z,23.01
2022-10-27T12:06:42.427Z,22.93
2022-10-27T12:07:42.397Z,22.86
2022-10-27T12:08:42.372Z,22.91
2022-10-27T12:09:42.373Z,23.03
2022-10-27T12:10:42.352Z,22.98
2022-10-27T12:11:42.379Z,22.96
2022-10-27T12:12:42.323Z,22.99
2022-10-27T12:13:42.363Z,23.01
2022-10-27T12:14:42.309Z,22.91
2022-10-27T12:15:42.301Z,22.88
2022-10-27T12:16:42.291Z,23.03
2022-10-27T12:17:42.271Z,23.13
2022-10-27T12:18:42.275Z,23.10
2022-10-27T12:19:42.269Z,23.15
2022-10-27T12:20:42.234Z,23.29
2022-10-27T12:21:42.247Z,23.42
2022-10-27T12:22:42.298Z,23.54
2022-10-27T12:23:42.228Z,23.60
2022-10-27T12:24:42.195Z,23.69
2022-10-27T12:25:42.217Z,23.70
2022-10-27T12:26:42.247Z,23.74
2022-10-27T12:27:42.175Z,23.69
2022-10-27T12:28:42.165Z,23.51
2022-10-27T12:29:42.152Z,23.42
2022-10-27T12:30:42.210Z,23.29
2022-10-27T12:31:42.155Z,23.25
2022-10-27T12:32:42.099Z,23.26
2022-10-27T12:33:42.103Z,23.22
2022-10-27T12:34:42.096Z,23.21
2022-10-27T12:35:42.088Z,23.34
2022-10-27T12:36:42.074Z,23.51
2022-10-27T12:37:42.057Z,23.64
2022-10-27T12:38:42.033Z,23.79
2022-10-27T12:39:42.054Z,23.97
2022-10-27T12:40:42.027Z,24.11
2022-10-27T12:41:42.013Z,24.47
2022-10-27T12:42:42.007Z,24.86
2022-10-27T12:43:42.027Z,25.09
2022-10-27T12:44:41.970Z,25.11
2022-10-27T12:45:48.695Z,25.08
2022-10-27T12:46:41.981Z,25.36
2022-10-27T12:47:41.954Z,25.58
2022-10-27T12:48:41.935Z,25.34
2022-10-27T12:49:41.930Z,25.14
2022-10-27T12:50:41.939Z,24.91
2022-10-27T12:51:41.909Z,25.03
2022-10-27T12:52:41.891Z,24.81
2022-10-27T12:53:41.889Z,24.94
2022-10-27T12:54:41.917Z,24.62
2022-10-27T12:55:41.882Z,24.41